Time;durP1;ratioP1;P1;durP2;ratioP2;P2;SDS_P1;SDS_P2;PMS_P1;PMS_P2;Temp;Humidity;BMP_temperature;BMP_pressure;BME280_temperature;BME280_humidity;BME280_pressure;Samples;Min_cycle;Max_cycle;Signal;HPM_P1;HPM_P2
2022/07/25 00:01:08;;;;;;;10.93;10.03;;;;;;;;;;5084742;28;20988;-72
2022/07/25 00:03:59;;;;;;;10.57;9.77;;;;;;;;;;5077083;28;20451;-72
2022/07/25 00:06:50;;;;;;;10.70;9.90;;;;;;;;;;5079084;28;20494;-72
2022/07/25 00:09:39;;;;;;;10.57;9.77;;;;;;;;;;5084548;28;20484;-72
2022/07/25 00:12:28;;;;;;;10.60;9.83;;;;;;;;;;5085278;28;20449;-72
2022/07/25 00:15:17;;;;;;;10.03;9.27;;;;;;;;;;5079945;28;20621;-74
2022/07/25 00:18:05;;;;;;;10.40;9.70;;;;;;;;;;5083287;28;20454;-72
2022/07/25 00:20:56;;;;;;;11.17;10.07;;;;;;;;;;5082727;28;20552;-72
2022/07/25 00:23:44;;;;;;;9.67;8.97;;;;;;;;;;5083324;28;20946;-72
2022/07/25 00:26:33;;;;;;;10.10;9.30;;;;;;;;;;5081536;28;20922;-72
2022/07/25 00:29:27;;;;;;;10.80;10.00;;;;;;;;;;5084296;28;20535;-72
2022/07/25 00:32:16;;;;;;;9.50;8.80;;;;;;;;;;5085619;28;20528;-72
2022/07/25 00:35:05;;;;;;;9.50;8.80;;;;;;;;;;5081914;28;20526;-73
2022/07/25 00:37:55;;;;;;;10.20;9.50;;;;;;;;;;5084191;28;20460;-72
2022/07/25 00:40:44;;;;;;;9.40;8.70;;;;;;;;;;5077262;28;20509;-72
2022/07/25 00:43:43;;;;;;;9.77;8.97;;;;;;;;;;5080622;28;20940;-72
2022/07/25 00:46:32;;;;;;;10.40;9.57;;;;;;;;;;5076214;28;20548;-72
2022/07/25 00:49:22;;;;;;;9.60;9.00;;;;;;;;;;5083783;28;20454;-72
2022/07/25 00:52:10;;;;;;;10.23;9.33;;;22.30;99.90;;;;;;5078544;28;20547;-73
2022/07/25 00:55:00;;;;;;;9.87;9.10;;;21.90;99.90;;;;;;5077850;28;20530;-72
2022/07/25 00:57:48;;;;;;;10.07;9.37;;;21.90;99.90;;;;;;5083593;28;20461;-72
2022/07/25 01:00:36;;;;;;;10.20;9.40;;;21.90;99.90;;;;;;5083969;28;20517;-72
2022/07/25 01:03:24;;;;;;;9.50;8.70;;;21.90;99.90;;;;;;5089855;28;20532;-72
2022/07/25 01:06:13;;;;;;;10.20;9.50;;;21.90;99.90;;;;;;5083119;28;20579;-72
2022/07/25 01:09:01;;;;;;;9.27;8.67;;;21.80;99.90;;;;;;5082157;28;20437;-72
2022/07/25 01:11:51;;;;;;;10.27;9.47;;;21.80;99.90;;;;;;5081593;28;20530;-72
2022/07/25 01:14:39;;;;;;;9.83;9.13;;;21.80;99.90;;;;;;5076253;28;20597;-72
2022/07/25 01:17:27;;;;;;;9.30;8.70;;;21.80;99.90;;;;;;5080471;28;20455;-72
2022/07/25 01:20:19;;;;;;;9.87;9.07;;;21.70;99.90;;;;;;5076823;28;20623;-72
2022/07/25 01:23:07;;;;;;;9.93;9.23;;;21.70;99.90;;;;;;5079739;28;20556;-72
2022/07/25 01:25:55;;;;;;;10.03;9.33;;;21.70;99.90;;;;;;5075899;28;20567;-72
2022/07/25 01:28:45;;;;;;;9.47;8.83;;;21.70;99.90;;;;;;5081021;28;20536;-72
2022/07/25 01:31:33;;;;;;;9.20;8.50;;;21.70;99.90;;;;;;5105076;22;20979;-75
2022/07/25 01:34:22;;;;;;;9.50;8.80;;;21.70;99.90;;;;;;5089648;28;20885;-76
2022/07/25 01:37:11;;;;;;;8.90;8.30;;;21.60;99.90;;;;;;5103511;28;20492;-76
2022/07/25 01:40:00;;;;;;;9.37;8.57;;;21.60;99.90;;;;;;5103602;28;20598;-76
2022/07/25 01:42:48;;;;;;;9.50;8.90;;;21.60;99.90;;;;;;5088801;28;20543;-76
2022/07/25 01:45:37;;;;;;;10.63;9.83;;;21.60;99.90;;;;;;5078998;28;20892;-75
2022/07/25 01:48:25;;;;;;;9.50;8.70;;;21.60;99.90;;;;;;5085221;28;20949;-75
2022/07/25 01:51:13;;;;;;;9.43;8.73;;;21.60;99.90;;;;;;5099767;28;20471;-75
2022/07/25 01:54:10;;;;;;;9.07;8.47;;;21.60;99.90;;;;;;5092309;28;20466;-76
2022/07/25 01:56:59;;;;;;;10.03;9.20;;;21.50;99.90;;;;;;5085401;28;20445;-76
2022/07/25 01:59:47;;;;;;;9.73;8.97;;;21.50;99.90;;;;;;5088804;28;20547;-76
2022/07/25 02:02:36;;;;;;;10.00;9.20;;;21.50;99.90;;;;;;5083338;28;20502;-76
2022/07/25 02:05:24;;;;;;;9.80;9.10;;;21.40;99.90;;;;;;5078267;28;21079;-76
2022/07/25 02:08:13;;;;;;;9.13;8.43;;;21.40;99.90;;;;;;5090218;28;20490;-76
2022/07/25 02:11:04;;;;;;;9.90;9.20;;;21.40;99.90;;;;;;5082887;28;20929;-76
2022/07/25 02:13:52;;;;;;;10.90;10.10;;;21.40;99.90;;;;;;5079325;28;20518;-75
2022/07/25 02:16:40;;;;;;;9.77;8.87;;;21.30;99.90;;;;;;5090338;28;20440;-76
2022/07/25 02:19:30;;;;;;;9.90;9.10;;;21.30;99.90;;;;;;5102843;28;20456;-76
2022/07/25 02:22:18;;;;;;;9.80;8.90;;;21.30;99.90;;;;;;5077500;28;20536;-76
2022/07/25 02:25:07;;;;;;;9.60;8.90;;;21.20;99.90;;;;;;5087953;28;20503;-75
2022/07/25 02:27:57;;;;;;;9.93;9.03;;;21.20;99.90;;;;;;5097478;28;20915;-76
2022/07/25 02:30:45;;;;;;;9.60;8.90;;;21.20;99.90;;;;;;5088861;28;20496;-76
2022/07/25 02:33:33;;;;;;;9.37;8.77;;;21.20;99.90;;;;;;5088101;28;21033;-76
2022/07/25 02:36:24;;;;;;;8.80;8.20;;;21.10;99.90;;;;;;5083356;28;20578;-75
2022/07/25 02:39:13;;;;;;;9.13;8.50;;;21.10;99.90;;;;;;5093745;28;20889;-76
2022/07/25 02:42:01;;;;;;;9.63;8.87;;;21.10;99.90;;;;;;5084363;28;20907;-76
2022/07/25 02:44:51;;;;;;;8.37;7.73;;;21.10;99.90;;;;;;5088554;28;20516;-76
2022/07/25 02:47:39;;;;;;;9.80;9.10;;;21.10;99.90;;;;;;5092270;28;20510;-76
2022/07/25 02:50:27;;;;;;;9.10;8.40;;;21.00;99.90;;;;;;5091870;28;21315;-76
2022/07/25 02:53:16;;;;;;;8.60;8.00;;;21.00;99.90;;;;;;5092324;28;20533;-76
2022/07/25 02:56:24;;;;;;;8.63;7.87;;;20.90;99.90;;;;;;5083417;28;20810;-75
2022/07/25 02:59:14;;;;;;;8.53;7.83;;;20.90;99.90;;;;;;5088979;28;20453;-76
2022/07/25 03:02:03;;;;;;;8.00;7.30;;;20.90;99.90;;;;;;5093196;28;20948;-76
2022/07/25 03:04:51;;;;;;;7.73;7.23;;;20.80;99.90;;;;;;5092292;28;20529;-76
2022/07/25 03:07:41;;;;;;;8.00;7.30;;;20.80;99.90;;;;;;5095854;28;20941;-75
2022/07/25 03:10:30;;;;;;;7.30;6.80;;;20.80;99.90;;;;;;5093965;28;20822;-75
2022/07/25 03:13:18;;;;;;;7.47;6.77;;;20.80;99.90;;;;;;5084804;28;20735;-76
2022/07/25 03:16:10;;;;;;;7.10;6.60;;;20.80;99.90;;;;;;5083541;28;20580;-76
2022/07/25 03:19:01;;;;;;;7.60;7.00;;;20.80;99.90;;;;;;5081492;28;21240;-76
2022/07/25 03:21:50;;;;;;;6.77;6.30;;;20.70;99.90;;;;;;5079313;28;20472;-76
2022/07/25 03:24:38;;;;;;;7.63;6.93;;;20.70;99.90;;;;;;5095117;28;20453;-76
2022/07/25 03:27:27;;;;;;;7.07;6.57;;;20.70;99.90;;;;;;5087803;28;20448;-75
2022/07/25 03:30:15;;;;;;;7.57;6.40;;;20.70;99.90;;;;;;5090104;28;20850;-76
2022/07/25 03:33:03;;;;;;;6.80;6.20;;;20.70;99.90;;;;;;5091985;28;20456;-76
2022/07/25 03:35:53;;;;;;;6.57;6.10;;;20.70;99.90;;;;;;5083093;28;20930;-76
2022/07/25 03:38:41;;;;;;;7.13;6.30;;;20.60;99.90;;;;;;5094748;28;20589;-75
2022/07/25 03:41:30;;;;;;;6.07;5.67;;;20.60;99.90;;;;;;5071398;28;20572;-76
2022/07/25 03:44:18;;;;;;;6.53;6.03;;;20.50;99.90;;;;;;5091755;28;20590;-76
2022/07/25 03:47:06;;;;;;;6.33;5.77;;;20.50;99.90;;;;;;5097131;28;20574;-76
2022/07/25 03:49:55;;;;;;;6.40;5.90;;;20.50;99.90;;;;;;5096616;28;20449;-76
2022/07/25 03:52:45;;;;;;;6.60;6.00;;;20.60;99.90;;;;;;5083583;28;20944;-76
2022/07/25 03:55:34;;;;;;;6.03;5.60;;;20.50;99.90;;;;;;5092638;28;20512;-76
2022/07/25 03:58:22;;;;;;;6.33;5.70;;;20.50;99.90;;;;;;5095912;28;20498;-76
2022/07/25 04:01:10;;;;;;;6.73;6.23;;;20.50;99.90;;;;;;5090867;28;21098;-76
2022/07/25 04:04:02;;;;;;;5.93;5.53;;;20.50;99.90;;;;;;5086112;28;20449;-76
2022/07/25 04:06:51;;;;;;;5.63;5.23;;;20.50;99.90;;;;;;5092050;28;20841;-76
2022/07/25 04:09:44;;;;;;;5.90;5.30;;;20.50;99.90;;;;;;5083861;28;20540;-75
2022/07/25 04:12:32;;;;;;;6.30;5.80;;;20.50;99.90;;;;;;5085452;28;20461;-76
2022/07/25 04:15:20;;;;;;;6.20;5.70;;;20.50;99.90;;;;;;5096457;28;20875;-75
2022/07/25 04:18:09;;;;;;;5.60;5.20;;;20.50;99.90;;;;;;5092923;28;20590;-75
2022/07/25 04:21:06;;;;;;;5.97;5.47;;;20.50;99.90;;;;;;5087197;28;20476;-76
2022/07/25 04:23:56;;;;;;;5.60;5.10;;;20.50;99.90;;;;;;5090801;28;20449;-75
2022/07/25 04:26:46;;;;;;;6.30;5.70;;;20.50;99.90;;;;;;5085374;28;21066;-76
2022/07/25 04:29:35;;;;;;;5.60;5.10;;;20.50;99.90;;;;;;5070203;28;20541;-76
2022/07/25 04:32:24;;;;;;;5.80;5.30;;;20.50;99.90;;;;;;5093741;28;20447;-76
2022/07/25 04:35:12;;;;;;;7.00;5.57;;;20.60;99.90;;;;;;5092988;28;20471;-76
2022/07/25 04:38:00;;;;;;;5.53;4.93;;;20.60;99.90;;;;;;5087534;28;21036;-75
2022/07/25 04:40:49;;;;;;;5.80;5.40;;;20.60;99.90;;;;;;5087491;28;20550;-76
2022/07/25 04:43:39;;;;;;;5.73;5.33;;;20.60;99.90;;;;;;5096361;28;20473;-76
2022/07/25 04:46:33;;;;;;;5.50;5.00;;;20.70;99.90;;;;;;5090454;28;20441;-76
2022/07/25 04:49:21;;;;;;;5.90;5.30;;;20.70;99.90;;;;;;5085890;28;20537;-76
2022/07/25 04:52:10;;;;;;;5.40;4.90;;;20.80;99.90;;;;;;5081939;28;20456;-75
2022/07/25 04:54:58;;;;;;;6.37;5.80;;;20.80;99.90;;;;;;5069056;28;20917;-76
2022/07/25 04:57:47;;;;;;;5.20;4.80;;;20.80;99.90;;;;;;5080681;28;20887;-75
2022/07/25 05:00:37;;;;;;;7.37;5.27;;;20.90;99.90;;;;;;5078208;28;20467;-75
2022/07/25 05:03:26;;;;;;;5.63;5.13;;;20.90;99.90;;;;;;5095772;28;20799;-74
2022/07/25 05:06:14;;;;;;;5.30;4.90;;;20.90;99.90;;;;;;5080872;28;20441;-75
2022/07/25 05:09:04;;;;;;;6.90;5.00;;;21.00;99.90;;;;;;5095285;28;20440;-75
2022/07/25 05:11:55;;;;;;;6.73;5.70;;;21.00;99.90;;;;;;5083280;28;20468;-75
2022/07/25 05:14:43;;;;;;;7.10;5.50;;;21.00;99.90;;;;;;5087110;28;20447;-75
2022/07/25 05:17:33;;;;;;;6.40;5.80;;;21.00;99.90;;;;;;5085392;28;20523;-75
2022/07/25 05:20:22;;;;;;;7.87;5.27;;;21.10;99.90;;;;;;5090804;28;20461;-75
2022/07/25 05:23:12;;;;;;;6.10;5.60;;;21.10;99.90;;;;;;5090171;28;20876;-74
2022/07/25 05:26:00;;;;;;;6.23;5.60;;;21.10;99.90;;;;;;5090156;28;20772;-75
2022/07/25 05:28:49;;;;;;;9.03;5.00;;;21.20;99.90;;;;;;5093930;28;20531;-75
2022/07/25 05:31:37;;;;;;;8.50;4.70;;;21.20;99.90;;;;;;5091497;28;20588;-75
2022/07/25 05:34:27;;;;;;;7.40;5.77;;;21.30;99.90;;;;;;5095070;28;20864;-75
2022/07/25 05:37:15;;;;;;;5.60;5.30;;;21.30;99.90;;;;;;5085949;28;20449;-76
2022/07/25 05:40:06;;;;;;;5.70;5.17;;;21.40;99.90;;;;;;5080549;28;20587;-76
2022/07/25 05:42:55;;;;;;;5.40;5.00;;;21.40;99.90;;;;;;5084490;28;20548;-76
2022/07/25 05:45:49;;;;;;;5.97;5.37;;;21.50;99.90;;;;;;5087404;28;20836;-76
2022/07/25 05:48:38;;;;;;;5.43;4.93;;;21.50;99.90;;;;;;5085668;28;20530;-76
2022/07/25 05:51:28;;;;;;;8.77;5.43;;;21.60;99.90;;;;;;5093876;28;20471;-75
2022/07/25 05:54:16;;;;;;;5.70;5.20;;;21.70;99.90;;;;;;5070997;28;20602;-75
2022/07/25 05:57:06;;;;;;;5.60;5.20;;;21.70;99.90;;;;;;5093538;28;20480;-76
2022/07/25 05:59:55;;;;;;;5.70;5.20;;;21.80;99.90;;;;;;5089512;28;20472;-76
2022/07/25 06:02:44;;;;;;;5.90;5.40;;;21.90;99.90;;;;;;5076003;28;21174;-76
2022/07/25 06:05:32;;;;;;;5.03;4.63;;;21.90;99.90;;;;;;5063825;28;20550;-76
2022/07/25 06:08:22;;;;;;;6.10;5.60;;;22.00;99.90;;;;;;5078372;28;20444;-75
2022/07/25 06:11:12;;;;;;;6.03;5.43;;;22.00;99.90;;;;;;5077794;28;20988;-76
2022/07/25 06:14:00;;;;;;;5.90;5.10;;;22.10;99.90;;;;;;5089759;28;20909;-76
2022/07/25 06:16:48;;;;;;;8.67;5.17;;;22.10;99.90;;;;;;5091052;28;20829;-75
2022/07/25 06:19:37;;;;;;;5.67;5.17;;;22.20;99.90;;;;;;5078344;28;20544;-76
2022/07/25 06:22:25;;;;;;;5.90;5.40;;;22.20;99.90;;;;;;5094417;28;20455;-76
2022/07/25 06:25:15;;;;;;;5.23;4.73;;;22.30;99.90;;;;;;5084668;28;20603;-76
2022/07/25 06:28:04;;;;;;;6.47;5.77;;;22.40;99.90;;;;;;5088315;28;20955;-76
2022/07/25 06:30:57;;;;;;;6.43;5.30;;;22.40;99.90;;;;;;5086960;28;20846;-75
2022/07/25 06:33:46;;;;;;;5.80;5.20;;;22.50;99.90;;;;;;5088849;28;20444;-76
2022/07/25 06:36:34;;;;;;;6.23;5.23;;;22.50;99.90;;;;;;5082116;28;20552;-76
2022/07/25 06:39:22;;;;;;;7.23;4.97;;;22.60;99.90;;;;;;5087291;28;20522;-75
2022/07/25 06:42:12;;;;;;;5.40;4.90;;;22.60;99.90;;;;;;5094195;28;20948;-76
2022/07/25 06:45:03;;;;;;;9.43;5.27;;;22.60;99.90;;;;;;5074487;28;20905;-76
2022/07/25 06:47:51;;;;;;;6.20;5.20;;;22.70;99.90;;;;;;5090774;28;20464;-76
2022/07/25 06:50:40;;;;;;;5.87;4.70;;;22.80;99.90;;;;;;5087004;28;20502;-76
2022/07/25 06:53:28;;;;;;;5.40;4.50;;;22.90;99.90;;;;;;5097595;28;20492;-76
2022/07/25 06:56:16;;;;;;;5.63;5.13;;;23.00;99.90;;;;;;5107121;28;20471;-76
2022/07/25 06:59:06;;;;;;;5.80;5.40;;;23.00;99.90;;;;;;5100618;28;20480;-76
2022/07/25 07:01:54;;;;;;;5.57;5.07;;;23.10;99.90;;;;;;5104085;28;20496;-76
2022/07/25 07:04:45;;;;;;;6.20;5.60;;;23.20;99.90;;;;;;5101607;28;20459;-75
2022/07/25 07:07:33;;;;;;;5.80;5.30;;;23.30;99.90;;;;;;5097679;28;20520;-76
2022/07/25 07:10:24;;;;;;;7.83;5.00;;;23.30;99.90;;;;;;5085339;28;20583;-76
2022/07/25 07:13:17;;;;;;;5.87;5.10;;;23.40;99.90;;;;;;5090737;28;20607;-76
2022/07/25 07:16:13;;;;;;;5.80;5.20;;;23.50;99.90;;;;;;5087116;28;20954;-76
2022/07/25 07:19:01;;;;;;;5.80;5.40;;;23.50;99.90;;;;;;5077774;28;20453;-76
2022/07/25 07:21:50;;;;;;;6.10;5.60;;;23.60;99.90;;;;;;5084921;28;20841;-76
2022/07/25 07:24:38;;;;;;;5.47;5.00;;;23.60;99.90;;;;;;5093810;28;20538;-74
2022/07/25 07:27:32;;;;;;;5.83;5.33;;;23.70;99.90;;;;;;5084501;28;20456;-74
2022/07/25 07:30:24;;;;;;;6.23;5.63;;;23.80;99.90;;;;;;5100916;22;20534;-73
2022/07/25 07:33:34;;;;;;;6.10;5.70;;;24.00;99.90;;;;;;5107870;28;20436;-73
2022/07/25 07:36:24;;;;;;;5.77;5.27;;;24.10;99.90;;;;;;5104069;27;20444;-73
2022/07/25 07:39:15;;;;;;;5.83;5.37;;;24.20;99.90;;;;;;5104960;27;20913;-73
2022/07/25 07:42:04;;;;;;;6.33;5.73;;;24.40;99.90;;;;;;5093137;27;20635;-74
2022/07/25 07:44:52;;;;;;;6.97;5.97;;;24.50;99.90;;;;;;5100713;27;20892;-74
2022/07/25 07:47:41;;;;;;;7.20;6.40;;;24.60;99.90;;;;;;5111935;27;20455;-74
2022/07/25 07:50:31;;;;;;;7.23;6.47;;;24.70;99.90;;;;;;5100001;28;20913;-74
2022/07/25 07:53:19;;;;;;;6.00;5.60;;;24.80;99.90;;;;;;5108584;27;20529;-74
2022/07/25 07:56:07;;;;;;;6.87;5.93;;;24.90;99.90;;;;;;5117922;27;20845;-73
2022/07/25 07:58:59;;;;;;;6.80;6.30;;;25.00;99.90;;;;;;5106879;27;20592;-74
2022/07/25 08:01:50;;;;;;;8.27;6.10;;;25.20;99.90;;;;;;5108840;28;20475;-73
2022/07/25 08:04:38;;;;;;;6.23;5.63;;;25.20;99.90;;;;;;5106118;28;21093;-73
2022/07/25 08:07:30;;;;;;;6.73;6.23;;;25.20;99.90;;;;;;5107004;28;20448;-73
2022/07/25 08:10:21;;;;;;;6.87;5.97;;;25.30;99.90;;;;;;5107005;27;20473;-73
2022/07/25 08:13:14;;;;;;;7.63;6.50;;;25.40;99.90;;;;;;5108367;27;20780;-74
2022/07/25 08:16:03;;;;;;;6.67;6.07;;;25.50;99.90;;;;;;5106221;27;20460;-73
2022/07/25 08:18:51;;;;;;;6.47;5.93;;;25.60;99.90;;;;;;5110200;27;20488;-74
2022/07/25 08:21:40;;;;;;;9.67;6.47;;;25.80;99.90;;;;;;5106220;28;20479;-74
2022/07/25 08:24:29;;;;;;;7.07;6.37;;;25.90;99.90;;;;;;5107322;28;20447;-74
2022/07/25 08:27:18;;;;;;;7.10;6.50;;;25.90;99.90;;;;;;5111403;28;20486;-73
2022/07/25 08:30:08;;;;;;;6.70;6.20;;;26.00;99.90;;;;;;5100687;28;20588;-74
2022/07/25 08:32:58;;;;;;;7.67;7.00;;;26.10;99.90;;;;;;5106575;27;20472;-74
2022/07/25 08:35:48;;;;;;;7.30;6.70;;;26.10;99.90;;;;;;5106949;27;20932;-73
2022/07/25 08:38:37;;;;;;;7.70;7.00;;;26.30;99.90;;;;;;5103399;27;20552;-74
2022/07/25 08:41:27;;;;;;;7.07;6.47;;;26.50;99.90;;;;;;5105409;28;20460;-74
2022/07/25 08:44:18;;;;;;;6.80;6.30;;;26.60;99.90;;;;;;5112025;27;20527;-73
2022/07/25 08:47:08;;;;;;;7.30;6.60;;;26.80;99.90;;;;;;5107775;27;20492;-74
2022/07/25 08:49:58;;;;;;;7.23;6.63;;;26.90;99.90;;;;;;5101254;28;20534;-74
2022/07/25 08:52:52;;;;;;;7.23;6.53;;;27.10;99.90;;;;;;5107905;28;20444;-73
2022/07/25 08:56:00;;;;;;;10.60;7.10;;;27.20;99.90;;;;;;5108143;28;20574;-74
2022/07/25 08:58:58;;;;;;;7.90;7.20;;;27.40;99.90;;;;;;5107283;27;20486;-74
2022/07/25 09:01:46;;;;;;;8.80;7.10;;;27.40;99.90;;;;;;5108155;27;20472;-73
2022/07/25 09:04:35;;;;;;;7.53;6.90;;;27.60;99.90;;;;;;5108795;27;20444;-73
2022/07/25 09:07:31;;;;;;;8.00;7.30;;;27.70;99.90;;;;;;5109895;27;21046;-74
2022/07/25 09:10:21;;;;;;;8.20;7.40;;;27.90;99.90;;;;;;5104374;28;20544;-74
2022/07/25 09:13:12;;;;;;;10.40;7.80;;;27.90;99.90;;;;;;5108859;27;20486;-73
2022/07/25 09:16:04;;;;;;;7.80;7.10;;;28.00;99.90;;;;;;5110693;27;20463;-74
2022/07/25 09:19:12;;;;;;;8.17;7.33;;;28.20;99.90;;;;;;5108594;27;20486;-73
2022/07/25 09:22:03;;;;;;;8.13;7.10;;;28.30;99.90;;;;;;5111932;27;21030;-74
2022/07/25 09:24:51;;;;;;;7.70;7.10;;;28.40;99.90;;;;;;5107260;28;20863;-74
2022/07/25 09:27:39;;;;;;;8.53;7.83;;;28.60;99.90;;;;;;5111456;27;20470;-74
2022/07/25 09:30:28;;;;;;;7.90;7.20;;;28.70;99.90;;;;;;5108467;27;21051;-74
2022/07/25 09:33:17;;;;;;;7.93;7.43;;;28.80;99.90;;;;;;5106966;28;20444;-73
2022/07/25 09:36:11;;;;;;;8.00;7.40;;;28.90;99.90;;;;;;5110331;27;20444;-74
2022/07/25 09:39:03;;;;;;;8.13;7.43;;;29.00;99.90;;;;;;5112002;27;20972;-74
2022/07/25 09:41:52;;;;;;;8.83;7.10;;;29.10;99.90;;;;;;5110235;27;20464;-74
2022/07/25 09:44:40;;;;;;;7.27;6.60;;;29.30;99.90;;;;;;5105695;27;20487;-74
2022/07/25 09:47:29;;;;;;;7.43;6.83;;;29.30;99.90;;;;;;5104973;28;20519;-74
2022/07/25 09:50:19;;;;;;;7.83;7.33;;;29.40;99.90;;;;;;5105088;28;20592;-74
2022/07/25 09:53:08;;;;;;;8.40;7.70;;;29.50;99.90;;;;;;5104153;28;20444;-74
2022/07/25 09:55:56;;;;;;;7.67;7.17;;;29.50;99.90;;;;;;5103704;28;20949;-74
2022/07/25 09:58:45;;;;;;;8.47;7.50;;;29.60;99.90;;;;;;5104658;28;20616;-74
2022/07/25 10:01:36;;;;;;;7.60;6.90;;;29.60;99.90;;;;;;5111122;27;20926;-74
2022/07/25 10:04:36;;;;;;;7.53;6.93;;;29.70;99.90;;;;;;5087050;28;20803;-73
2022/07/25 10:07:27;;;;;;;7.00;6.50;;;29.80;99.90;;;;;;5098918;28;20963;-73
2022/07/25 10:10:25;;;;;;;7.57;6.77;;;29.90;99.90;;;;;;5096521;28;20528;-74
2022/07/25 10:13:16;;;;;;;7.63;6.93;;;30.00;99.90;;;;;;5112785;28;20468;-74
2022/07/25 10:16:17;;;;;;;7.40;6.90;;;30.10;99.90;;;;;;5105984;28;20487;-73
2022/07/25 10:19:06;;;;;;;8.60;7.73;;;30.10;99.90;;;;;;5105535;28;20486;-73
2022/07/25 10:21:55;;;;;;;7.77;7.27;;;30.20;99.90;;;;;;5108105;28;20506;-74
2022/07/25 10:24:47;;;;;;;7.30;6.67;;;30.30;99.90;;;;;;5101536;28;20598;-74
2022/07/25 10:27:43;;;;;;;8.00;7.10;;;30.30;99.90;;;;;;5105018;28;21074;-74
2022/07/25 10:30:35;;;;;;;6.83;6.23;;;30.30;99.90;;;;;;5107375;28;20494;-74
2022/07/25 10:33:25;;;;;;;7.27;6.67;;;30.30;99.90;;;;;;5110302;28;20443;-73
2022/07/25 10:36:13;;;;;;;6.80;6.40;;;30.40;99.90;;;;;;5108133;28;21022;-74
2022/07/25 10:39:02;;;;;;;6.70;6.10;;;30.30;99.90;;;;;;5104745;28;20532;-73
2022/07/25 10:41:53;;;;;;;7.33;6.83;;;30.40;99.90;;;;;;5108443;28;20587;-73
2022/07/25 10:44:43;;;;;;;7.67;7.07;;;30.40;99.90;;;;;;5099858;28;20930;-74
2022/07/25 10:47:37;;;;;;;7.63;7.13;;;30.50;99.90;;;;;;5101795;28;20532;-74
2022/07/25 10:50:27;;;;;;;7.67;6.97;;;30.50;99.90;;;;;;5111166;27;20507;-74
2022/07/25 10:53:38;;;;;;;7.20;6.80;;;30.50;99.90;;;;;;5107686;27;20458;-74
2022/07/25 10:56:28;;;;;;;7.10;6.70;;;30.50;99.90;;;;;;5114531;27;20873;-74
2022/07/25 10:59:27;;;;;;;7.00;6.53;;;30.50;99.90;;;;;;5110929;27;20473;-75
2022/07/25 11:02:16;;;;;;;7.73;7.23;;;30.60;99.90;;;;;;5108042;27;20856;-75
2022/07/25 11:05:05;;;;;;;7.77;7.07;;;30.70;99.90;;;;;;5118962;27;20459;-74
2022/07/25 11:07:55;;;;;;;8.17;7.43;;;30.70;99.90;;;;;;5113495;27;20600;-75
2022/07/25 11:11:04;;;;;;;8.10;7.50;;;30.70;99.90;;;;;;5112675;28;20501;-75
2022/07/25 11:13:53;;;;;;;7.77;7.27;;;30.70;99.90;;;;;;5106245;27;20470;-75
2022/07/25 11:16:47;;;;;;;7.70;7.10;;;30.70;99.90;;;;;;5092461;27;20444;-75
2022/07/25 11:19:38;;;;;;;7.40;6.90;;;30.70;99.90;;;;;;5109078;27;20491;-75
2022/07/25 11:22:28;;;;;;;7.67;7.10;;;30.70;99.90;;;;;;5111299;27;20852;-75
2022/07/25 11:25:18;;;;;;;7.60;7.07;;;30.70;99.90;;;;;;5108647;27;20490;-75
2022/07/25 11:28:07;;;;;;;7.60;7.00;;;30.70;99.90;;;;;;5114189;27;20837;-75
2022/07/25 11:31:03;;;;;;;8.27;7.67;;;30.70;99.90;;;;;;5104048;27;20624;-75
2022/07/25 11:33:53;;;;;;;7.43;6.80;;;30.80;99.90;;;;;;5107713;27;20518;-75
2022/07/25 11:36:41;;;;;;;8.17;7.57;;;30.90;99.90;;;;;;5108192;28;20451;-74
2022/07/25 11:39:32;;;;;;;8.37;7.57;;;30.90;99.90;;;;;;5111075;27;20480;-77
2022/07/25 11:42:21;;;;;;;7.63;7.13;;;30.90;99.90;;;;;;5115882;27;20796;-75
2022/07/25 11:45:18;;;;;;;7.60;7.00;;;31.00;99.90;;;;;;5108682;27;20446;-75
2022/07/25 11:48:08;;;;;;;7.27;6.80;;;31.00;99.90;;;;;;5108850;27;20828;-74
2022/07/25 11:50:58;;;;;;;7.60;7.00;;;31.10;99.90;;;;;;5109548;27;20567;-74
2022/07/25 11:53:49;;;;;;;7.50;7.00;;;31.20;99.90;;;;;;5102871;27;20551;-74
2022/07/25 11:56:38;;;;;;;7.57;7.00;;;31.20;99.90;;;;;;5110771;27;20881;-73
2022/07/25 11:59:40;;;;;;;7.50;7.00;;;31.30;99.90;;;;;;5107879;27;21159;-74
2022/07/25 12:02:31;;;;;;;7.80;7.27;;;31.40;99.90;;;;;;5103239;28;20520;-74
2022/07/25 12:05:21;;;;;;;8.23;7.53;;;31.60;99.90;;;;;;5110897;27;20948;-73
2022/07/25 12:08:13;;;;;;;7.87;7.33;;;31.70;99.90;;;;;;5111087;27;21031;-74
2022/07/25 12:11:01;;;;;;;7.30;6.80;;;31.80;99.90;;;;;;5113925;27;20849;-74
2022/07/25 12:13:50;;;;;;;7.53;6.93;;;32.00;99.90;;;;;;5102529;27;20952;-74
2022/07/25 12:16:39;;;;;;;7.00;6.50;;;32.10;99.90;;;;;;5110213;28;20451;-74
2022/07/25 12:19:27;;;;;;;7.57;7.00;;;32.20;99.90;;;;;;5106909;27;20464;-74
2022/07/25 12:22:15;;;;;;;7.00;6.50;;;32.30;99.90;;;;;;5110023;28;20606;-74
2022/07/25 12:25:06;;;;;;;7.10;6.40;;;32.50;99.90;;;;;;5106760;27;20448;-74
2022/07/25 12:27:54;;;;;;;7.40;6.90;;;32.60;99.90;;;;;;5108254;28;20557;-73
2022/07/25 12:30:44;;;;;;;6.90;6.50;;;32.70;99.90;;;;;;5104055;28;20554;-74
2022/07/25 12:33:33;;;;;;;7.27;6.87;;;32.70;99.90;;;;;;5110430;27;20436;-74
2022/07/25 12:36:21;;;;;;;7.77;7.07;;;32.70;99.90;;;;;;5102539;28;21002;-74
2022/07/25 12:39:10;;;;;;;7.70;7.10;;;32.70;99.90;;;;;;5109560;27;20510;-74
2022/07/25 12:41:59;;;;;;;7.47;6.90;;;32.60;99.90;;;;;;5106340;28;20983;-74
2022/07/25 12:44:47;;;;;;;7.60;7.00;;;32.80;99.90;;;;;;5099312;27;20951;-74
2022/07/25 12:47:36;;;;;;;7.53;6.93;;;32.80;99.90;;;;;;5110490;27;20485;-74
2022/07/25 12:50:24;;;;;;;6.57;5.97;;;32.90;99.90;;;;;;5108133;28;20990;-74
2022/07/25 12:53:13;;;;;;;7.23;6.73;;;32.80;99.90;;;;;;5098671;27;20959;-74
2022/07/25 12:56:02;;;;;;;7.40;6.90;;;32.80;99.90;;;;;;5109307;27;20504;-74
2022/07/25 12:58:51;;;;;;;7.30;6.70;;;32.70;99.90;;;;;;5108987;27;20521;-74
2022/07/25 13:01:40;;;;;;;7.10;6.60;;;32.60;99.90;;;;;;5104666;28;20610;-74
2022/07/25 13:04:28;;;;;;;7.40;6.90;;;32.40;99.90;;;;;;5111051;28;20466;-74
2022/07/25 13:07:16;;;;;;;7.30;6.80;;;32.30;99.90;;;;;;5111399;27;20542;-74
2022/07/25 13:10:06;;;;;;;7.90;7.20;;;32.20;99.90;;;;;;5107785;27;20551;-74
2022/07/25 13:12:55;;;;;;;7.10;6.63;;;32.10;99.90;;;;;;5102321;27;20591;-74
2022/07/25 13:15:45;;;;;;;7.40;6.90;;;32.10;99.90;;;;;;5098559;28;21021;-74
2022/07/25 13:18:33;;;;;;;7.57;7.07;;;32.10;99.90;;;;;;5097442;28;20527;-74
2022/07/25 13:21:21;;;;;;;8.50;6.87;;;32.10;99.90;;;;;;5117825;27;20467;-74
2022/07/25 13:24:11;;;;;;;7.30;6.80;;;32.10;99.90;;;;;;5104344;27;20462;-73
2022/07/25 13:27:00;;;;;;;7.60;7.10;;;32.10;99.90;;;;;;5105518;27;20609;-74
2022/07/25 13:29:52;;;;;;;7.77;7.07;;;32.10;99.90;;;;;;5111217;27;20462;-74
2022/07/25 13:32:43;;;;;;;7.20;6.60;;;32.00;99.90;;;;;;5101420;28;20444;-77
2022/07/25 13:35:32;;;;;;;7.17;6.60;;;32.00;99.90;;;;;;5106834;28;21037;-75
2022/07/25 13:38:26;;;;;;;7.70;7.20;;;32.10;99.90;;;;;;5110237;27;20589;-76
2022/07/25 13:41:14;;;;;;;7.23;6.73;;;32.00;99.90;;;;;;5117538;27;20968;-76
2022/07/25 13:44:03;;;;;;;7.37;6.90;;;32.00;99.90;;;;;;5108817;28;20480;-76
2022/07/25 13:46:51;;;;;;;7.27;6.87;;;32.00;99.90;;;;;;5099385;28;20501;-76
2022/07/25 13:49:41;;;;;;;8.47;7.77;;;32.10;99.90;;;;;;5107082;28;20517;-76
2022/07/25 13:52:30;;;;;;;7.80;7.20;;;32.20;99.90;;;;;;5108961;27;20991;-77
2022/07/25 13:55:19;;;;;;;7.70;7.20;;;32.20;99.90;;;;;;5108456;27;20488;-77
2022/07/25 13:58:07;;;;;;;7.50;6.90;;;32.20;99.90;;;;;;5105653;27;20918;-76
2022/07/25 14:00:56;;;;;;;7.73;7.17;;;32.20;99.90;;;;;;5112271;27;20910;-76
2022/07/25 14:03:45;;;;;;;7.80;7.10;;;32.10;99.90;;;;;;5104264;28;20459;-77
2022/07/25 14:06:35;;;;;;;8.50;7.80;;;32.00;99.90;;;;;;5106642;28;20488;-76
2022/07/25 14:09:23;;;;;;;8.20;7.60;;;31.80;99.90;;;;;;5112412;28;20453;-76
2022/07/25 14:12:11;;;;;;;8.00;7.30;;;31.70;99.90;;;;;;5105536;28;20516;-76
2022/07/25 14:14:59;;;;;;;9.40;8.47;;;31.60;99.90;;;;;;5111406;28;20601;-76
2022/07/25 14:17:48;;;;;;;8.83;8.13;;;31.40;99.90;;;;;;5104337;28;20493;-76
2022/07/25 14:20:39;;;;;;;9.40;8.60;;;30.80;99.90;;;;;;5103884;28;20911;-76
2022/07/25 14:23:28;;;;;;;10.10;9.17;;;30.50;99.90;;;;;;5104210;28;20882;-76
2022/07/25 14:26:17;;;;;;;9.10;8.30;;;30.30;99.90;;;;;;5105479;28;20452;-76
2022/07/25 14:29:09;;;;;;;10.73;9.60;;;30.00;99.90;;;;;;5114709;27;20475;-76
2022/07/25 14:31:58;;;;;;;12.03;9.50;;;29.60;99.90;;;;;;5100694;28;20482;-76
2022/07/25 14:34:46;;;;;;;8.97;8.37;;;29.50;99.90;;;;;;5113513;27;20443;-76
2022/07/25 14:37:37;;;;;;;9.70;8.70;;;29.20;99.90;;;;;;5114381;27;20534;-76
2022/07/25 14:40:29;;;;;;;9.23;8.00;;;28.90;99.90;;;;;;5106922;27;20488;-76
2022/07/25 14:43:17;;;;;;;7.40;6.90;;;28.90;99.90;;;;;;5111991;27;20491;-76
2022/07/25 14:46:06;;;;;;;7.80;6.23;;;28.90;99.90;;;;;;5120160;27;20452;-76
2022/07/25 14:48:55;;;;;;;6.87;6.27;;;28.70;99.90;;;;;;5114253;27;20484;-76